sensor_id;sensor_type;location;lat;lon;timestamp;pressure;altitude;pressure_sealevel;temperature;humidity
69058;BME280;56128;37.534;-122.308;2023-04-08T00:00:39;101514.59;;;15.23;100.00
69058;BME280;56128;37.534;-122.308;2023-04-08T00:03:05;101509.91;;;15.25;100.00
69058;BME280;56128;37.534;-122.308;2023-04-08T00:05:33;101521.00;;;15.11;100.00
69058;BME280;56128;37.534;-122.308;2023-04-08T00:07:59;101524.31;;;15.15;100.00
69058;BME280;56128;37.534;-122.308;2023-04-08T00:10:25;101525.78;;;15.07;100.00
69058;BME280;56128;37.534;-122.308;2023-04-08T00:12:52;101525.56;;;14.99;100.00
69058;BME280;56128;37.534;-122.308;2023-04-08T00:15:18;101526.81;;;14.95;100.00
69058;BME280;56128;37.534;-122.308;2023-04-08T00:17:44;101534.75;;;14.97;100.00
69058;BME280;56128;37.534;-122.308;2023-04-08T00:20:11;101544.94;;;14.93;100.00
69058;BME280;56128;37.534;-122.308;2023-04-08T00:22:38;101537.75;;;14.82;100.00
69058;BME280;56128;37.534;-122.308;2023-04-08T00:25:04;101536.63;;;14.85;100.00
69058;BME280;56128;37.534;-122.308;2023-04-08T00:27:34;101537.88;;;14.69;100.00
69058;BME280;56128;37.534;-122.308;2023-04-08T00:30:00;101526.09;;;14.59;100.00
69058;BME280;56128;37.534;-122.308;2023-04-08T00:32:27;101530.03;;;14.55;100.00
69058;BME280;56128;37.534;-122.308;2023-04-08T00:34:54;101530.28;;;14.52;100.00
69058;BME280;56128;37.534;-122.308;2023-04-08T00:37:20;101538.38;;;14.40;100.00
69058;BME280;56128;37.534;-122.308;2023-04-08T00:39:48;101533.59;;;14.33;100.00
69058;BME280;56128;37.534;-122.308;2023-04-08T00:42:14;101537.03;;;14.12;100.00
69058;BME280;56128;37.534;-122.308;2023-04-08T00:44:40;101547.31;;;14.07;100.00
69058;BME280;56128;37.534;-122.308;2023-04-08T00:47:07;101542.91;;;14.06;100.00
69058;BME280;56128;37.534;-122.308;2023-04-08T00:49:36;101551.19;;;14.03;100.00
69058;BME280;56128;37.534;-122.308;2023-04-08T00:52:03;101551.31;;;14.01;100.00
69058;BME280;56128;37.534;-122.308;2023-04-08T00:54:30;101557.06;;;14.08;100.00
69058;BME280;56128;37.534;-122.308;2023-04-08T00:56:57;101560.63;;;14.08;100.00
69058;BME280;56128;37.534;-122.308;2023-04-08T00:59:28;101551.34;;;14.12;100.00
69058;BME280;56128;37.534;-122.308;2023-04-08T01:07:25;101552.06;;;14.03;100.00
69058;BME280;56128;37.534;-122.308;2023-04-08T01:09:55;101560.34;;;13.89;100.00
69058;BME280;56128;37.534;-122.308;2023-04-08T01:12:26;101557.69;;;14.00;100.00
69058;BME280;56128;37.534;-122.308;2023-04-08T01:15:02;101558.91;;;13.96;100.00
69058;BME280;56128;37.534;-122.308;2023-04-08T01:17:30;101561.91;;;13.80;100.00
69058;BME280;56128;37.534;-122.308;2023-04-08T01:19:59;101561.88;;;13.69;100.00
69058;BME280;56128;37.534;-122.308;2023-04-08T01:23:15;101563.50;;;13.71;100.00
69058;BME280;56128;37.534;-122.308;2023-04-08T01:25:32;101568.09;;;13.58;100.00
69058;BME280;56128;37.534;-122.308;2023-04-08T01:28:25;101576.69;;;13.63;100.00
69058;BME280;56128;37.534;-122.308;2023-04-08T01:30:55;101575.31;;;13.57;100.00
69058;BME280;56128;37.534;-122.308;2023-04-08T01:33:23;101579.34;;;13.52;100.00
69058;BME280;56128;37.534;-122.308;2023-04-08T01:35:51;101573.53;;;13.45;100.00
69058;BME280;56128;37.534;-122.308;2023-04-08T01:38:19;101587.22;;;13.42;100.00
69058;BME280;56128;37.534;-122.308;2023-04-08T01:40:48;101586.06;;;13.33;100.00
69058;BME280;56128;37.534;-122.308;2023-04-08T01:43:16;101593.09;;;13.23;100.00
69058;BME280;56128;37.534;-122.308;2023-04-08T01:45:45;101593.44;;;13.18;100.00
69058;BME280;56128;37.534;-122.308;2023-04-08T01:48:13;101602.38;;;12.81;100.00
69058;BME280;56128;37.534;-122.308;2023-04-08T01:50:43;101600.25;;;12.61;100.00
69058;BME280;56128;37.534;-122.308;2023-04-08T01:53:10;101589.66;;;12.46;100.00
69058;BME280;56128;37.534;-122.308;2023-04-08T01:55:38;101587.41;;;12.27;100.00
69058;BME280;56128;37.534;-122.308;2023-04-08T01:58:06;101594.59;;;12.14;100.00
69058;BME280;56128;37.534;-122.308;2023-04-08T02:00:35;101599.72;;;12.04;100.00
69058;BME280;56128;37.534;-122.308;2023-04-08T02:03:02;101593.38;;;11.92;100.00
69058;BME280;56128;37.534;-122.308;2023-04-08T02:05:31;101593.25;;;11.81;100.00
69058;BME280;56128;37.534;-122.308;2023-04-08T02:07:57;101595.28;;;11.77;100.00
69058;BME280;56128;37.534;-122.308;2023-04-08T02:10:23;101592.59;;;11.77;100.00
69058;BME280;56128;37.534;-122.308;2023-04-08T02:12:50;101593.72;;;11.60;100.00
69058;BME280;56128;37.534;-122.308;2023-04-08T02:15:16;101596.72;;;11.56;100.00
69058;BME280;56128;37.534;-122.308;2023-04-08T02:17:55;101611.28;;;11.51;100.00
69058;BME280;56128;37.534;-122.308;2023-04-08T02:20:37;101609.53;;;11.37;100.00
69058;BME280;56128;37.534;-122.308;2023-04-08T02:23:28;101609.28;;;11.28;100.00
69058;BME280;56128;37.534;-122.308;2023-04-08T02:25:56;101616.97;;;11.19;100.00
69058;BME280;56128;37.534;-122.308;2023-04-08T02:28:23;101614.75;;;11.12;100.00
69058;BME280;56128;37.534;-122.308;2023-04-08T02:30:52;101609.50;;;11.10;100.00
69058;BME280;56128;37.534;-122.308;2023-04-08T02:33:21;101600.91;;;11.05;100.00
69058;BME280;56128;37.534;-122.308;2023-04-08T02:35:49;101597.69;;;11.00;100.00
69058;BME280;56128;37.534;-122.308;2023-04-08T02:38:16;101600.75;;;10.94;100.00
69058;BME280;56128;37.534;-122.308;2023-04-08T02:40:43;101600.97;;;10.91;100.00
69058;BME280;56128;37.534;-122.308;2023-04-08T02:43:09;101614.63;;;10.86;100.00
69058;BME280;56128;37.534;-122.308;2023-04-08T02:45:41;101612.81;;;10.86;100.00
69058;BME280;56128;37.534;-122.308;2023-04-08T02:48:07;101619.22;;;10.84;100.00
69058;BME280;56128;37.534;-122.308;2023-04-08T02:50:33;101613.03;;;10.69;100.00
69058;BME280;56128;37.534;-122.308;2023-04-08T02:53:00;101607.09;;;10.64;100.00
69058;BME280;56128;37.534;-122.308;2023-04-08T02:55:26;101603.47;;;10.65;100.00
69058;BME280;56128;37.534;-122.308;2023-04-08T02:57:52;101609.88;;;10.62;100.00
69058;BME280;56128;37.534;-122.308;2023-04-08T03:00:19;101597.75;;;10.57;100.00
69058;BME280;56128;37.534;-122.308;2023-04-08T03:02:45;101614.56;;;10.59;100.00
69058;BME280;56128;37.534;-122.308;2023-04-08T03:05:11;101609.69;;;10.51;100.00
69058;BME280;56128;37.534;-122.308;2023-04-08T03:07:40;101617.94;;;10.48;100.00
69058;BME280;56128;37.534;-122.308;2023-04-08T03:10:07;101629.09;;;10.40;100.00
69058;BME280;56128;37.534;-122.308;2023-04-08T03:12:34;101622.03;;;10.39;100.00
69058;BME280;56128;37.534;-122.308;2023-04-08T03:15:00;101626.19;;;10.29;100.00
69058;BME280;56128;37.534;-122.308;2023-04-08T03:17:28;101629.81;;;10.28;100.00
69058;BME280;56128;37.534;-122.308;2023-04-08T03:19:55;101614.16;;;10.21;100.00
69058;BME280;56128;37.534;-122.308;2023-04-08T03:22:21;101624.91;;;10.20;100.00
69058;BME280;56128;37.534;-122.308;2023-04-08T03:24:48;101619.00;;;10.15;100.00
69058;BME280;56128;37.534;-122.308;2023-04-08T03:27:15;101626.16;;;10.14;100.00
69058;BME280;56128;37.534;-122.308;2023-04-08T03:29:41;101617.47;;;10.11;100.00
69058;BME280;56128;37.534;-122.308;2023-04-08T03:32:07;101632.63;;;10.10;100.00
69058;BME280;56128;37.534;-122.308;2023-04-08T03:34:34;101635.78;;;10.02;100.00
69058;BME280;56128;37.534;-122.308;2023-04-08T03:37:00;101640.84;;;10.07;100.00
69058;BME280;56128;37.534;-122.308;2023-04-08T03:39:26;101644.84;;;10.00;100.00
69058;BME280;56128;37.534;-122.308;2023-04-08T03:41:53;101654.59;;;10.01;100.00
69058;BME280;56128;37.534;-122.308;2023-04-08T03:44:19;101650.78;;;10.05;100.00
69058;BME280;56128;37.534;-122.308;2023-04-08T03:46:45;101661.56;;;10.03;100.00
69058;BME280;56128;37.534;-122.308;2023-04-08T03:49:11;101662.63;;;10.01;100.00
69058;BME280;56128;37.534;-122.308;2023-04-08T03:51:38;101671.69;;;9.98;100.00
69058;BME280;56128;37.534;-122.308;2023-04-08T03:54:04;101668.22;;;9.96;100.00
69058;BME280;56128;37.534;-122.308;2023-04-08T03:56:33;101661.53;;;9.89;100.00
69058;BME280;56128;37.534;-122.308;2023-04-08T03:58:59;101681.88;;;9.91;100.00
69058;BME280;56128;37.534;-122.308;2023-04-08T04:01:26;101687.75;;;9.82;100.00
69058;BME280;56128;37.534;-122.308;2023-04-08T04:03:52;101707.94;;;9.88;100.00
69058;BME280;56128;37.534;-122.308;2023-04-08T04:06:18;101704.84;;;9.80;100.00
69058;BME280;56128;37.534;-122.308;2023-04-08T04:08:44;101705.88;;;9.77;100.00
69058;BME280;56128;37.534;-122.308;2023-04-08T04:11:11;101721.91;;;9.77;100.00
69058;BME280;56128;37.534;-122.308;2023-04-08T04:13:37;101722.09;;;9.74;100.00
69058;BME280;56128;37.534;-122.308;2023-04-08T04:16:03;101725.72;;;9.73;100.00
69058;BME280;56128;37.534;-122.308;2023-04-08T04:18:30;101728.38;;;9.73;100.00
69058;BME280;56128;37.534;-122.308;2023-04-08T04:20:59;101734.69;;;9.72;100.00
69058;BME280;56128;37.534;-122.308;2023-04-08T04:23:25;101728.84;;;9.65;100.00
69058;BME280;56128;37.534;-122.308;2023-04-08T04:25:51;101732.53;;;9.63;100.00
69058;BME280;56128;37.534;-122.308;2023-04-08T04:28:17;101748.47;;;9.64;100.00
69058;BME280;56128;37.534;-122.308;2023-04-08T04:30:44;101744.34;;;9.58;100.00
69058;BME280;56128;37.534;-122.308;2023-04-08T04:33:10;101748.91;;;9.56;100.00
69058;BME280;56128;37.534;-122.308;2023-04-08T04:35:38;101744.69;;;9.52;100.00
69058;BME280;56128;37.534;-122.308;2023-04-08T04:38:04;101744.88;;;9.49;100.00
69058;BME280;56128;37.534;-122.308;2023-04-08T04:40:35;101744.88;;;9.49;100.00
69058;BME280;56128;37.534;-122.308;2023-04-08T04:43:02;101751.59;;;9.40;100.00
69058;BME280;56128;37.534;-122.308;2023-04-08T04:45:28;101752.63;;;9.38;100.00
69058;BME280;56128;37.534;-122.308;2023-04-08T04:47:54;101764.09;;;9.40;100.00
69058;BME280;56128;37.534;-122.308;2023-04-08T04:50:20;101763.31;;;9.38;100.00
69058;BME280;56128;37.534;-122.308;2023-04-08T04:52:46;101779.31;;;9.38;100.00
69058;BME280;56128;37.534;-122.308;2023-04-08T04:55:13;101771.41;;;9.36;100.00
69058;BME280;56128;37.534;-122.308;2023-04-08T04:57:40;101781.41;;;9.33;100.00
69058;BME280;56128;37.534;-122.308;2023-04-08T05:00:07;101789.22;;;9.36;100.00
69058;BME280;56128;37.534;-122.308;2023-04-08T05:02:34;101779.75;;;9.30;100.00
69058;BME280;56128;37.534;-122.308;2023-04-08T05:05:00;101783.13;;;9.34;100.00
69058;BME280;56128;37.534;-122.308;2023-04-08T05:07:26;101770.84;;;9.30;100.00
69058;BME280;56128;37.534;-122.308;2023-04-08T05:09:53;101768.28;;;9.28;100.00
69058;BME280;56128;37.534;-122.308;2023-04-08T05:12:19;101770.94;;;9.28;100.00
69058;BME280;56128;37.534;-122.308;2023-04-08T05:14:45;101765.78;;;9.25;100.00
69058;BME280;56128;37.534;-122.308;2023-04-08T05:17:12;101759.56;;;9.24;100.00
69058;BME280;56128;37.534;-122.308;2023-04-08T05:19:38;101749.16;;;9.20;100.00
69058;BME280;56128;37.534;-122.308;2023-04-08T05:22:04;101746.41;;;9.21;100.00
69058;BME280;56128;37.534;-122.308;2023-04-08T05:24:30;101743.72;;;9.21;100.00
69058;BME280;56128;37.534;-122.308;2023-04-08T05:26:56;101742.09;;;9.19;100.00
69058;BME280;56128;37.534;-122.308;2023-04-08T05:29:23;101750.84;;;9.21;100.00
69058;BME280;56128;37.534;-122.308;2023-04-08T05:31:49;101750.09;;;9.19;100.00
69058;BME280;56128;37.534;-122.308;2023-04-08T05:34:15;101742.00;;;9.20;100.00
69058;BME280;56128;37.534;-122.308;2023-04-08T05:36:48;101744.81;;;9.17;100.00
69058;BME280;56128;37.534;-122.308;2023-04-08T05:39:18;101749.16;;;9.20;100.00
69058;BME280;56128;37.534;-122.308;2023-04-08T05:41:45;101740.44;;;9.16;100.00
69058;BME280;56128;37.534;-122.308;2023-04-08T05:44:11;101732.59;;;9.13;100.00
69058;BME280;56128;37.534;-122.308;2023-04-08T05:46:39;101733.38;;;9.15;100.00
69058;BME280;56128;37.534;-122.308;2023-04-08T05:49:05;101727.09;;;9.16;100.00
69058;BME280;56128;37.534;-122.308;2023-04-08T05:51:31;101731.31;;;9.20;100.00
69058;BME280;56128;37.534;-122.308;2023-04-08T05:53:57;101745.59;;;9.19;100.00
69058;BME280;56128;37.534;-122.308;2023-04-08T05:56:23;101744.47;;;9.23;100.00
69058;BME280;56128;37.534;-122.308;2023-04-08T05:58:50;101735.88;;;9.18;100.00
69058;BME280;56128;37.534;-122.308;2023-04-08T06:01:16;101751.56;;;9.24;100.00
69058;BME280;56128;37.534;-122.308;2023-04-08T06:03:42;101750.00;;;9.20;100.00
69058;BME280;56128;37.534;-122.308;2023-04-08T06:06:09;101747.50;;;9.17;100.00
69058;BME280;56128;37.534;-122.308;2023-04-08T06:08:38;101745.00;;;9.14;100.00
69058;BME280;56128;37.534;-122.308;2023-04-08T06:11:05;101751.28;;;9.13;100.00
69058;BME280;56128;37.534;-122.308;2023-04-08T06:13:31;101753.44;;;9.06;100.00
69058;BME280;56128;37.534;-122.308;2023-04-08T06:15:58;101758.59;;;9.09;100.00
69058;BME280;56128;37.534;-122.308;2023-04-08T06:18:34;101758.69;;;9.08;100.00
69058;BME280;56128;37.534;-122.308;2023-04-08T06:21:00;101743.94;;;9.01;100.00
69058;BME280;56128;37.534;-122.308;2023-04-08T06:23:27;101745.84;;;8.99;100.00
69058;BME280;56128;37.534;-122.308;2023-04-08T06:25:53;101747.56;;;9.00;100.00
69058;BME280;56128;37.534;-122.308;2023-04-08T06:28:19;101740.50;;;8.99;100.00
69058;BME280;56128;37.534;-122.308;2023-04-08T06:30:45;101741.34;;;8.99;100.00
69058;BME280;56128;37.534;-122.308;2023-04-08T06:33:12;101747.56;;;9.00;100.00
69058;BME280;56128;37.534;-122.308;2023-04-08T06:35:38;101740.41;;;9.00;100.00
69058;BME280;56128;37.534;-122.308;2023-04-08T06:38:04;101735.88;;;9.02;100.00
69058;BME280;56128;37.534;-122.308;2023-04-08T06:40:30;101733.09;;;9.04;100.00
69058;BME280;56128;37.534;-122.308;2023-04-08T06:42:56;101740.09;;;9.06;100.00
69058;BME280;56128;37.534;-122.308;2023-04-08T06:45:22;101745.34;;;9.08;100.00
69058;BME280;56128;37.534;-122.308;2023-04-08T06:47:49;101752.56;;;9.06;100.00
69058;BME280;56128;37.534;-122.308;2023-04-08T06:50:15;101754.47;;;9.04;100.00
69058;BME280;56128;37.534;-122.308;2023-04-08T06:52:41;101758.06;;;9.03;100.00
69058;BME280;56128;37.534;-122.308;2023-04-08T06:55:08;101756.34;;;9.02;100.00
69058;BME280;56128;37.534;-122.308;2023-04-08T06:57:34;101750.75;;;9.06;100.00
69058;BME280;56128;37.534;-122.308;2023-04-08T07:00:00;101741.88;;;9.06;100.00
69058;BME280;56128;37.534;-122.308;2023-04-08T07:02:27;101738.59;;;9.01;100.00
69058;BME280;56128;37.534;-122.308;2023-04-08T07:04:53;101733.72;;;9.09;100.00
69058;BME280;56128;37.534;-122.308;2023-04-08T07:07:19;101732.78;;;9.10;100.00
69058;BME280;56128;37.534;-122.308;2023-04-08T07:09:45;101727.44;;;9.10;100.00
69058;BME280;56128;37.534;-122.308;2023-04-08T07:12:12;101723.97;;;9.08;100.00
69058;BME280;56128;37.534;-122.308;2023-04-08T07:14:38;101724.91;;;9.07;100.00
69058;BME280;56128;37.534;-122.308;2023-04-08T07:17:04;101731.19;;;9.06;100.00
69058;BME280;56128;37.534;-122.308;2023-04-08T07:19:30;101727.84;;;9.02;100.00
69058;BME280;56128;37.534;-122.308;2023-04-08T07:21:56;101734.91;;;9.03;100.00
69058;BME280;56128;37.534;-122.308;2023-04-08T07:24:23;101735.78;;;9.04;100.00
69058;BME280;56128;37.534;-122.308;2023-04-08T07:26:49;101743.00;;;9.02;100.00
69058;BME280;56128;37.534;-122.308;2023-04-08T07:29:16;101736.00;;;8.99;100.00
69058;BME280;56128;37.534;-122.308;2023-04-08T07:31:42;101755.22;;;9.06;100.00
69058;BME280;56128;37.534;-122.308;2023-04-08T07:34:09;101755.22;;;9.06;100.00
69058;BME280;56128;37.534;-122.308;2023-04-08T07:36:36;101757.97;;;9.04;100.00
69058;BME280;56128;37.534;-122.308;2023-04-08T07:39:03;101762.47;;;9.04;100.00
69058;BME280;56128;37.534;-122.308;2023-04-08T07:41:29;101771.41;;;9.03;100.00
69058;BME280;56128;37.534;-122.308;2023-04-08T07:43:55;101766.16;;;9.01;100.00
69058;BME280;56128;37.534;-122.308;2023-04-08T07:46:21;101753.91;;;8.97;100.00
69058;BME280;56128;37.534;-122.308;2023-04-08T07:48:47;101751.50;;;8.92;100.00
69058;BME280;56128;37.534;-122.308;2023-04-08T07:51:14;101755.13;;;8.91;100.00
69058;BME280;56128;37.534;-122.308;2023-04-08T07:53:40;101760.78;;;8.85;100.00
69058;BME280;56128;37.534;-122.308;2023-04-08T07:56:14;101763.44;;;8.85;100.00
69058;BME280;56128;37.534;-122.308;2023-04-08T07:58:41;101763.44;;;8.85;100.00
69058;BME280;56128;37.534;-122.308;2023-04-08T08:01:17;101758.81;;;8.89;100.00
69058;BME280;56128;37.534;-122.308;2023-04-08T08:03:44;101758.28;;;8.82;100.00
69058;BME280;56128;37.534;-122.308;2023-04-08T08:06:12;101767.06;;;8.84;100.00
69058;BME280;56128;37.534;-122.308;2023-04-08T08:08:38;101756.38;;;8.84;100.00
69058;BME280;56128;37.534;-122.308;2023-04-08T08:11:05;101751.75;;;8.88;100.00
69058;BME280;56128;37.534;-122.308;2023-04-08T08:13:32;101755.13;;;8.91;100.00
69058;BME280;56128;37.534;-122.308;2023-04-08T08:15:58;101752.53;;;8.90;100.00
69058;BME280;56128;37.534;-122.308;2023-04-08T08:18:25;101741.91;;;8.88;100.00
69058;BME280;56128;37.534;-122.308;2023-04-08T08:20:51;101747.09;;;8.91;100.00
69058;BME280;56128;37.534;-122.308;2023-04-08T08:23:17;101754.94;;;8.94;100.00
69058;BME280;56128;37.534;-122.308;2023-04-08T08:25:44;101752.22;;;8.96;100.00
69058;BME280;56128;37.534;-122.308;2023-04-08T08:28:10;101756.53;;;8.99;100.00
69058;BME280;56128;37.534;-122.308;2023-04-08T08:30:36;101762.56;;;9.02;100.00
69058;BME280;56128;37.534;-122.308;2023-04-08T08:33:03;101759.81;;;9.04;100.00
69058;BME280;56128;37.534;-122.308;2023-04-08T08:35:29;101752.41;;;9.09;100.00
69058;BME280;56128;37.534;-122.308;2023-04-08T08:37:55;101751.28;;;9.13;100.00
69058;BME280;56128;37.534;-122.308;2023-04-08T08:40:21;101751.28;;;9.13;100.00
69058;BME280;56128;37.534;-122.308;2023-04-08T08:42:51;101747.06;;;9.09;100.00
69058;BME280;56128;37.534;-122.308;2023-04-08T08:45:20;101757.91;;;9.06;100.00
69058;BME280;56128;37.534;-122.308;2023-04-08T08:47:46;101751.72;;;9.05;100.00
69058;BME280;56128;37.534;-122.308;2023-04-08T08:50:13;101746.69;;;8.99;100.00
69058;BME280;56128;37.534;-122.308;2023-04-08T08:52:47;101751.19;;;8.99;100.00
69058;BME280;56128;37.534;-122.308;2023-04-08T08:55:13;101759.66;;;8.89;100.00
69058;BME280;56128;37.534;-122.308;2023-04-08T08:57:40;101763.28;;;8.88;100.00
69058;BME280;56128;37.534;-122.308;2023-04-08T09:00:07;101760.97;;;8.82;100.00
69058;BME280;56128;37.534;-122.308;2023-04-08T09:02:33;101762.84;;;8.80;100.00
69058;BME280;56128;37.534;-122.308;2023-04-08T09:05:01;101750.22;;;8.66;100.00
69058;BME280;56128;37.534;-122.308;2023-04-08T09:07:35;101765.28;;;8.67;100.00
69058;BME280;56128;37.534;-122.308;2023-04-08T09:10:01;101766.22;;;8.66;100.00
69058;BME280;56128;37.534;-122.308;2023-04-08T09:12:28;101764.91;;;8.57;100.00
69058;BME280;56128;37.534;-122.308;2023-04-08T09:15:06;101767.00;;;8.51;100.00
69058;BME280;56128;37.534;-122.308;2023-04-08T09:17:39;101761.09;;;8.44;100.00
69058;BME280;56128;37.534;-122.308;2023-04-08T09:20:12;101767.63;;;8.38;100.00
69058;BME280;56128;37.534;-122.308;2023-04-08T09:23:00;101768.78;;;8.33;100.00
69058;BME280;56128;37.534;-122.308;2023-04-08T09:25:32;101762.91;;;8.26;100.00
69058;BME280;56128;37.534;-122.308;2023-04-08T09:27:59;101757.81;;;8.21;100.00
69058;BME280;56128;37.534;-122.308;2023-04-08T09:30:27;101747.53;;;8.13;100.00
69058;BME280;56128;37.534;-122.308;2023-04-08T09:32:57;101752.16;;;8.10;100.00
69058;BME280;56128;37.534;-122.308;2023-04-08T09:35:24;101740.13;;;8.01;100.00
69058;BME280;56128;37.534;-122.308;2023-04-08T09:37:50;101742.09;;;7.97;100.00
69058;BME280;56128;37.534;-122.308;2023-04-08T09:40:17;101749.16;;;7.99;100.00
69058;BME280;56128;37.534;-122.308;2023-04-08T09:42:47;101751.09;;;7.95;100.00
69058;BME280;56128;37.534;-122.308;2023-04-08T09:45:17;101765.22;;;7.97;100.00
69058;BME280;56128;37.534;-122.308;2023-04-08T09:47:54;101772.34;;;7.96;100.00
69058;BME280;56128;37.534;-122.308;2023-04-08T09:50:25;101754.78;;;7.92;100.00
69058;BME280;56128;37.534;-122.308;2023-04-08T09:53:08;101767.81;;;7.99;100.00
69058;BME280;56128;37.534;-122.308;2023-04-08T09:55:36;101755.34;;;7.99;100.00
69058;BME280;56128;37.534;-122.308;2023-04-08T09:58:18;101754.47;;;7.99;100.00
69058;BME280;56128;37.534;-122.308;2023-04-08T10:00:49;101756.28;;;7.98;100.00
69058;BME280;56128;37.534;-122.308;2023-04-08T10:03:33;101756.22;;;8.00;100.00
69058;BME280;56128;37.534;-122.308;2023-04-08T10:06:01;101747.41;;;7.97;100.00
69058;BME280;56128;37.534;-122.308;2023-04-08T10:08:29;101741.25;;;7.97;100.00
69058;BME280;56128;37.534;-122.308;2023-04-08T10:10:57;101749.16;;;7.99;100.00
69058;BME280;56128;37.534;-122.308;2023-04-08T10:13:24;101740.22;;;8.00;100.00
69058;BME280;56128;37.534;-122.308;2023-04-08T10:18:49;101748.31;;;7.98;100.00
69058;BME280;56128;37.534;-122.308;2023-04-08T10:21:37;101749.25;;;7.97;100.00
69058;BME280;56128;37.534;-122.308;2023-04-08T10:24:10;101737.94;;;7.92;100.00
69058;BME280;56128;37.534;-122.308;2023-04-08T10:26:44;101746.78;;;7.92;100.00
69058;BME280;56128;37.534;-122.308;2023-04-08T10:31:46;101745.53;;;7.82;100.00
69058;BME280;56128;37.534;-122.308;2023-04-08T10:34:20;101743.88;;;7.79;100.00
69058;BME280;56128;37.534;-122.308;2023-04-08T10:36:47;101743.00;;;7.79;100.00
69058;BME280;56128;37.534;-122.308;2023-04-08T10:39:15;101737.81;;;7.76;100.00
69058;BME280;56128;37.534;-122.308;2023-04-08T10:41:45;101744.09;;;7.75;100.00
69058;BME280;56128;37.534;-122.308;2023-04-08T10:44:21;101754.09;;;7.70;100.00
69058;BME280;56128;37.534;-122.308;2023-04-08T10:46:49;101749.59;;;7.72;100.00
69058;BME280;56128;37.534;-122.308;2023-04-08T10:49:16;101752.25;;;7.72;100.00
69058;BME280;56128;37.534;-122.308;2023-04-08T10:51:44;101753.00;;;7.74;100.00
69058;BME280;56128;37.534;-122.308;2023-04-08T10:54:15;101747.59;;;7.75;100.00
69058;BME280;56128;37.534;-122.308;2023-04-08T10:56:50;101753.66;;;7.79;100.00
69058;BME280;56128;37.534;-122.308;2023-04-08T10:59:27;101750.94;;;7.80;100.00
69058;BME280;56128;37.534;-122.308;2023-04-08T11:01:53;101751.63;;;7.84;100.00
69058;BME280;56128;37.534;-122.308;2023-04-08T11:04:20;101747.00;;;7.88;100.00
69058;BME280;56128;37.534;-122.308;2023-04-08T11:06:48;101749.63;;;7.89;100.00
69058;BME280;56128;37.534;-122.308;2023-04-08T11:09:15;101752.91;;;7.94;100.00
69058;BME280;56128;37.534;-122.308;2023-04-08T11:11:43;101735.03;;;7.96;100.00
69058;BME280;56128;37.534;-122.308;2023-04-08T11:14:09;101753.38;;;8.03;100.00
69058;BME280;56128;37.534;-122.308;2023-04-08T11:16:37;101753.16;;;8.07;100.00
69058;BME280;56128;37.534;-122.308;2023-04-08T11:19:04;101758.41;;;8.09;100.00
69058;BME280;56128;37.534;-122.308;2023-04-08T11:21:34;101753.97;;;8.09;100.00
69058;BME280;56128;37.534;-122.308;2023-04-08T11:24:05;101754.59;;;8.15;100.00
69058;BME280;56128;37.534;-122.308;2023-04-08T11:26:32;101754.59;;;8.15;100.00
69058;BME280;56128;37.534;-122.308;2023-04-08T11:28:59;101762.34;;;8.19;100.00
69058;BME280;56128;37.534;-122.308;2023-04-08T11:31:26;101744.63;;;8.18;100.00
69058;BME280;56128;37.534;-122.308;2023-04-08T11:33:53;101756.69;;;8.25;100.00
69058;BME280;56128;37.534;-122.308;2023-04-08T11:36:21;101746.03;;;8.25;100.00
69058;BME280;56128;37.534;-122.308;2023-04-08T11:38:47;101742.44;;;8.26;100.00
69058;BME280;56128;37.534;-122.308;2023-04-08T11:41:14;101735.38;;;8.25;100.00
69058;BME280;56128;37.534;-122.308;2023-04-08T11:43:51;101728.00;;;8.31;100.00
69058;BME280;56128;37.534;-122.308;2023-04-08T11:46:17;101722.66;;;8.31;100.00
69058;BME280;56128;37.534;-122.308;2023-04-08T11:49:02;101712.06;;;8.29;100.00
69058;BME280;56128;37.534;-122.308;2023-04-08T11:51:29;101704.16;;;8.27;100.00
69058;BME280;56128;37.534;-122.308;2023-04-08T11:53:55;101690.97;;;8.24;100.00
69058;BME280;56128;37.534;-122.308;2023-04-08T11:56:23;101689.28;;;8.23;100.00
69058;BME280;56128;37.534;-122.308;2023-04-08T11:58:50;101691.94;;;8.23;100.00
69058;BME280;56128;37.534;-122.308;2023-04-08T12:01:17;101692.00;;;8.22;100.00
69058;BME280;56128;37.534;-122.308;2023-04-08T12:04:12;101683.31;;;8.18;100.00
69058;BME280;56128;37.534;-122.308;2023-04-08T12:06:38;101708.16;;;8.19;100.00
69058;BME280;56128;37.534;-122.308;2023-04-08T12:09:08;101711.84;;;8.16;100.00
69058;BME280;56128;37.534;-122.308;2023-04-08T12:11:34;101720.66;;;8.18;100.00
69058;BME280;56128;37.534;-122.308;2023-04-08T12:14:00;101725.19;;;8.16;100.00
69058;BME280;56128;37.534;-122.308;2023-04-08T12:16:26;101727.13;;;8.12;100.00
69058;BME280;56128;37.534;-122.308;2023-04-08T12:18:52;101732.56;;;8.11;100.00
69058;BME280;56128;37.534;-122.308;2023-04-08T12:21:19;101731.66;;;8.10;100.00
69058;BME280;56128;37.534;-122.308;2023-04-08T12:23:45;101737.00;;;8.10;100.00
69058;BME280;56128;37.534;-122.308;2023-04-08T12:26:11;101742.28;;;8.12;100.00
69058;BME280;56128;37.534;-122.308;2023-04-08T12:28:57;101731.53;;;8.13;100.00
69058;BME280;56128;37.534;-122.308;2023-04-08T12:31:23;101747.44;;;8.15;100.00
69058;BME280;56128;37.534;-122.308;2023-04-08T12:33:51;101744.78;;;8.15;100.00